Chantaco — FMLM — position and weather

sailwx.info

Track history (hours):
 
Tides and Currents Weather Stations Pressure Air Temp Water Temp Dewpoint Dewpoint Depression Visibility Wind Speed Wind Dir Waves Ship Positions

Chantaco

Last reported at 2015-Mar-05 02:23 UTC. Time now 2015-Mar-05 06:37 UTC.
Position N 50°51' W 001°20'.

Length 143 m; draft 6.5 m.

Type: Tanker. MMSI: 228330700.

Date/timePositionNaut miles runAvg speedWind from/ knotsBaromVisibWave heightAir tempDewpointWater temp
2015-Mar-05 02:23N 50°51' W 001°20'0 0.0
2015-Mar-04 23:23N 50°51' W 001°20'0 0.0
2015-Mar-04 21:17N 50°51' W 001°20'0 0.0
2015-Mar-04 18:23N 50°51' W 001°20'0 0.0
2015-Mar-04 16:17N 50°51' W 001°20'0 0.0
2015-Mar-04 11:11N 50°51' W 001°20'0 0.0
2015-Mar-04 10:29N 50°51' W 001°20'0 0.0
2015-Mar-04 06:17N 50°51' W 001°20'0 0.0
2015-Mar-04 03:23N 50°51' W 001°20'0 0.0
2015-Mar-03 09:28N 50°51' W 001°20'0 0.0
2015-Mar-02 20:22N 50°51' W 001°20'0 0.0
2015-Mar-02 14:28N 50°51' W 001°20'0 0.0
2015-Mar-02 12:10N 50°51' W 001°20'0 0.0
2015-Mar-02 09:34N 50°51' W 001°20'2 2.4
2015-Mar-02 08:33N 50°49' W 001°18'1010.3
2015-Mar-02 07:33N 50°44' W 001°03'1110.9
2015-Mar-02 06:33N 50°34' W 000°56'1211.6
2015-Mar-02 05:33N 50°24' W 000°46'3611.7
2015-Mar-02 02:29N 49°50' W 000°29'1213.2
2015-Mar-02 01:33N 49°39' W 000°22'1312.6
2015-Mar-02 00:33N 49°32' W 000°06'1110.8
2015-Mar-01 23:33N 49°29' E 000°10'1 0.6
2015-Mar-01 22:32N 49°29' E 000°11'0 0.0
2015-Mar-01 21:32N 49°29' E 000°11'0 0.0
2015-Mar-01 20:32N 49°29' E 000°11'0 0.0
2015-Mar-01 19:29N 49°29' E 000°11'0 0.0
2015-Mar-01 18:32N 49°29' E 000°11'0 0.0
2015-Mar-01 17:32N 49°29' E 000°11'0 0.0
2015-Mar-01 16:32N 49°29' E 000°11'0 0.0
2015-Mar-01 15:32N 49°29' E 000°11'0 0.0
2015-Mar-01 14:32N 49°29' E 000°11'0 0.0
2015-Mar-01 13:32N 49°29' E 000°11'0 0.0
2015-Mar-01 12:32N 49°29' E 000°11'0 0.0
2015-Mar-01 11:32N 49°29' E 000°11'0 0.0
2015-Mar-01 10:32N 49°29' E 000°11'0 0.0
2015-Mar-01 09:32N 49°29' E 000°11'0 0.0
2015-Mar-01 08:32N 49°29' E 000°11'0 0.0
2015-Mar-01 07:32N 49°29' E 000°11'0 0.0
2015-Mar-01 06:32N 49°29' E 000°11'0 0.0
2015-Mar-01 05:31N 49°29' E 000°11'0 0.0
2015-Mar-01 04:31N 49°29' E 000°11'0 0.0
2015-Mar-01 03:31N 49°29' E 000°11'0 0.0
2015-Mar-01 02:31N 49°29' E 000°11'0 0.0
2015-Mar-01 01:28N 49°29' E 000°11'0 0.0
2015-Mar-01 00:31N 49°29' E 000°11'0 0.0
2015-Feb-28 23:31N 49°29' E 000°11'0 0.0
2015-Feb-28 22:31N 49°29' E 000°11'0 0.0
2015-Feb-28 21:31N 49°29' E 000°11'0 0.0
2015-Feb-28 20:31N 49°29' E 000°11'0 0.0
2015-Feb-28 19:31N 49°29' E 000°11'0 0.0
2015-Feb-28 18:31N 49°29' E 000°11'0 0.0
2015-Feb-28 17:31N 49°29' E 000°11'0 0.0
2015-Feb-28 16:31N 49°29' E 000°11'0 0.0
2015-Feb-28 15:31N 49°29' E 000°11'1 0.5
2015-Feb-28 14:33N 49°29' E 000°10'1 1.2
2015-Feb-28 13:33N 49°28' E 000°09'8 8.2
2015-Feb-28 12:32N 49°30' W 000°04'0 0.0
2015-Feb-28 11:29N 49°30' W 000°04'9 9.4
2015-Feb-28 10:33N 49°34' W 000°16'210 8.4
2015-Feb-27 09:33N 47°52' W 004°55'  
Track history (hours):
 
Tides and Currents Weather Stations Pressure Air Temp Water Temp Dewpoint Dewpoint Depression Visibility Wind Speed Wind Dir Waves Ship Positions

Chantaco

Last reported at 2015-Mar-05 02:23 UTC. Time now 2015-Mar-05 06:37 UTC.
Position N 50°51' W 001°20'.

Length 143 m; draft 6.5 m.

Type: Tanker. MMSI: 228330700.

Date/timePositionNaut miles runAvg speedWind from/ knotsBaromVisibWave heightAir tempDewpointWater temp
2015-Mar-05 02:23N 50°51' W 001°20'0 0.0
2015-Mar-04 23:23N 50°51' W 001°20'0 0.0
2015-Mar-04 21:17N 50°51' W 001°20'0 0.0
2015-Mar-04 18:23N 50°51' W 001°20'0 0.0
2015-Mar-04 16:17N 50°51' W 001°20'0 0.0
2015-Mar-04 11:11N 50°51' W 001°20'0 0.0
2015-Mar-04 10:29N 50°51' W 001°20'0 0.0
2015-Mar-04 06:17N 50°51' W 001°20'0 0.0
2015-Mar-04 03:23N 50°51' W 001°20'0 0.0
2015-Mar-03 09:28N 50°51' W 001°20'0 0.0
2015-Mar-02 20:22N 50°51' W 001°20'0 0.0
2015-Mar-02 14:28N 50°51' W 001°20'0 0.0
2015-Mar-02 12:10N 50°51' W 001°20'0 0.0
2015-Mar-02 09:34N 50°51' W 001°20'2 2.4
2015-Mar-02 08:33N 50°49' W 001°18'1010.3
2015-Mar-02 07:33N 50°44' W 001°03'1110.9
2015-Mar-02 06:33N 50°34' W 000°56'1211.6
2015-Mar-02 05:33N 50°24' W 000°46'3611.7
2015-Mar-02 02:29N 49°50' W 000°29'1213.2
2015-Mar-02 01:33N 49°39' W 000°22'1312.6
2015-Mar-02 00:33N 49°32' W 000°06'1110.8
2015-Mar-01 23:33N 49°29' E 000°10'1 0.6
2015-Mar-01 22:32N 49°29' E 000°11'0 0.0
2015-Mar-01 21:32N 49°29' E 000°11'0 0.0
2015-Mar-01 20:32N 49°29' E 000°11'0 0.0
2015-Mar-01 19:29N 49°29' E 000°11'0 0.0
2015-Mar-01 18:32N 49°29' E 000°11'0 0.0
2015-Mar-01 17:32N 49°29' E 000°11'0 0.0
2015-Mar-01 16:32N 49°29' E 000°11'0 0.0
2015-Mar-01 15:32N 49°29' E 000°11'0 0.0
2015-Mar-01 14:32N 49°29' E 000°11'0 0.0
2015-Mar-01 13:32N 49°29' E 000°11'0 0.0
2015-Mar-01 12:32N 49°29' E 000°11'0 0.0
2015-Mar-01 11:32N 49°29' E 000°11'0 0.0
2015-Mar-01 10:32N 49°29' E 000°11'0 0.0
2015-Mar-01 09:32N 49°29' E 000°11'0 0.0
2015-Mar-01 08:32N 49°29' E 000°11'0 0.0
2015-Mar-01 07:32N 49°29' E 000°11'0 0.0
2015-Mar-01 06:32N 49°29' E 000°11'0 0.0
2015-Mar-01 05:31N 49°29' E 000°11'0 0.0
2015-Mar-01 04:31N 49°29' E 000°11'0 0.0
2015-Mar-01 03:31N 49°29' E 000°11'0 0.0
2015-Mar-01 02:31N 49°29' E 000°11'0 0.0
2015-Mar-01 01:28N 49°29' E 000°11'0 0.0
2015-Mar-01 00:31N 49°29' E 000°11'0 0.0
2015-Feb-28 23:31N 49°29' E 000°11'0 0.0
2015-Feb-28 22:31N 49°29' E 000°11'0 0.0
2015-Feb-28 21:31N 49°29' E 000°11'0 0.0
2015-Feb-28 20:31N 49°29' E 000°11'0 0.0
2015-Feb-28 19:31N 49°29' E 000°11'0 0.0
2015-Feb-28 18:31N 49°29' E 000°11'0 0.0
2015-Feb-28 17:31N 49°29' E 000°11'0 0.0
2015-Feb-28 16:31N 49°29' E 000°11'0 0.0
2015-Feb-28 15:31N 49°29' E 000°11'1 0.5
2015-Feb-28 14:33N 49°29' E 000°10'1 1.2
2015-Feb-28 13:33N 49°28' E 000°09'8 8.2
2015-Feb-28 12:32N 49°30' W 000°04'0 0.0
2015-Feb-28 11:29N 49°30' W 000°04'9 9.4
2015-Feb-28 10:33N 49°34' W 000°16'210 8.4
2015-Feb-27 09:33N 47°52' W 004°55'  

Dump ship's entire track history